sensor_id;sensor_type;location;lat;lon;timestamp;P1;durP1;ratioP1;P2;durP2;ratioP2
69750;SDS011;57335;52.288;6.056;2023-03-01T00:01:31;19.85;;;7.38;;
69750;SDS011;57335;52.288;6.056;2023-03-01T00:03:58;14.65;;;6.78;;
69750;SDS011;57335;52.288;6.056;2023-03-01T00:06:26;16.88;;;6.97;;
69750;SDS011;57335;52.288;6.056;2023-03-01T00:08:52;18.65;;;6.82;;
69750;SDS011;57335;52.288;6.056;2023-03-01T00:11:20;16.55;;;5.75;;
69750;SDS011;57335;52.288;6.056;2023-03-01T00:13:55;17.48;;;6.38;;
69750;SDS011;57335;52.288;6.056;2023-03-01T00:16:30;16.27;;;6.30;;
69750;SDS011;57335;52.288;6.056;2023-03-01T00:18:59;18.20;;;7.53;;
69750;SDS011;57335;52.288;6.056;2023-03-01T00:21:26;18.23;;;7.45;;
69750;SDS011;57335;52.288;6.056;2023-03-01T00:23:53;18.38;;;6.93;;
69750;SDS011;57335;52.288;6.056;2023-03-01T00:26:20;20.83;;;6.65;;
69750;SDS011;57335;52.288;6.056;2023-03-01T00:28:48;15.57;;;6.85;;
69750;SDS011;57335;52.288;6.056;2023-03-01T00:31:16;18.88;;;6.88;;
69750;SDS011;57335;52.288;6.056;2023-03-01T00:33:44;13.00;;;5.13;;
69750;SDS011;57335;52.288;6.056;2023-03-01T00:36:12;12.70;;;4.70;;
69750;SDS011;57335;52.288;6.056;2023-03-01T00:38:44;18.80;;;6.28;;
69750;SDS011;57335;52.288;6.056;2023-03-01T00:41:12;17.10;;;6.78;;
69750;SDS011;57335;52.288;6.056;2023-03-01T00:43:41;14.32;;;6.60;;
69750;SDS011;57335;52.288;6.056;2023-03-01T00:46:09;16.77;;;6.20;;
69750;SDS011;57335;52.288;6.056;2023-03-01T00:48:39;19.27;;;7.72;;
69750;SDS011;57335;52.288;6.056;2023-03-01T00:51:13;17.70;;;6.70;;
69750;SDS011;57335;52.288;6.056;2023-03-01T00:56:11;13.30;;;5.65;;
69750;SDS011;57335;52.288;6.056;2023-03-01T00:58:39;15.98;;;5.82;;
69750;SDS011;57335;52.288;6.056;2023-03-01T01:01:07;15.85;;;6.30;;
69750;SDS011;57335;52.288;6.056;2023-03-01T01:03:37;17.85;;;7.40;;
69750;SDS011;57335;52.288;6.056;2023-03-01T01:06:04;19.73;;;6.80;;
69750;SDS011;57335;52.288;6.056;2023-03-01T01:08:30;17.05;;;6.85;;
69750;SDS011;57335;52.288;6.056;2023-03-01T01:10:56;17.17;;;6.10;;
69750;SDS011;57335;52.288;6.056;2023-03-01T01:13:23;15.20;;;7.85;;
69750;SDS011;57335;52.288;6.056;2023-03-01T01:15:49;16.40;;;6.82;;
69750;SDS011;57335;52.288;6.056;2023-03-01T01:18:15;16.55;;;6.45;;
69750;SDS011;57335;52.288;6.056;2023-03-01T01:20:42;19.40;;;7.05;;
69750;SDS011;57335;52.288;6.056;2023-03-01T01:23:08;18.77;;;6.25;;
69750;SDS011;57335;52.288;6.056;2023-03-01T01:25:35;14.52;;;6.43;;
69750;SDS011;57335;52.288;6.056;2023-03-01T01:28:02;17.92;;;6.70;;
69750;SDS011;57335;52.288;6.056;2023-03-01T01:32:55;17.73;;;6.78;;
69750;SDS011;57335;52.288;6.056;2023-03-01T01:35:21;15.40;;;6.43;;
69750;SDS011;57335;52.288;6.056;2023-03-01T01:37:47;16.25;;;5.90;;
69750;SDS011;57335;52.288;6.056;2023-03-01T01:40:14;17.73;;;6.40;;
69750;SDS011;57335;52.288;6.056;2023-03-01T01:42:40;15.82;;;6.45;;
69750;SDS011;57335;52.288;6.056;2023-03-01T01:45:24;16.80;;;6.15;;
69750;SDS011;57335;52.288;6.056;2023-03-01T01:47:55;18.05;;;6.93;;
69750;SDS011;57335;52.288;6.056;2023-03-01T01:50:25;17.40;;;7.22;;
69750;SDS011;57335;52.288;6.056;2023-03-01T01:52:52;18.67;;;7.30;;
69750;SDS011;57335;52.288;6.056;2023-03-01T01:55:20;17.65;;;6.72;;
69750;SDS011;57335;52.288;6.056;2023-03-01T01:57:52;17.15;;;7.15;;
69750;SDS011;57335;52.288;6.056;2023-03-01T02:00:23;17.85;;;7.30;;
69750;SDS011;57335;52.288;6.056;2023-03-01T02:02:55;16.33;;;7.07;;
69750;SDS011;57335;52.288;6.056;2023-03-01T02:08:02;18.48;;;6.88;;
69750;SDS011;57335;52.288;6.056;2023-03-01T02:10:29;15.23;;;5.93;;
69750;SDS011;57335;52.288;6.056;2023-03-01T02:12:59;16.45;;;6.25;;
69750;SDS011;57335;52.288;6.056;2023-03-01T02:15:26;15.82;;;6.65;;
69750;SDS011;57335;52.288;6.056;2023-03-01T02:17:57;15.68;;;6.60;;
69750;SDS011;57335;52.288;6.056;2023-03-01T02:20:43;17.33;;;7.25;;
69750;SDS011;57335;52.288;6.056;2023-03-01T02:23:17;15.52;;;5.82;;
69750;SDS011;57335;52.288;6.056;2023-03-01T02:25:49;13.68;;;5.45;;
69750;SDS011;57335;52.288;6.056;2023-03-01T02:28:37;14.40;;;6.05;;
69750;SDS011;57335;52.288;6.056;2023-03-01T02:31:07;17.30;;;6.18;;
69750;SDS011;57335;52.288;6.056;2023-03-01T02:33:36;15.98;;;7.13;;
69750;SDS011;57335;52.288;6.056;2023-03-01T02:36:04;15.93;;;6.30;;
69750;SDS011;57335;52.288;6.056;2023-03-01T02:38:34;16.00;;;6.35;;
69750;SDS011;57335;52.288;6.056;2023-03-01T02:41:02;14.07;;;5.80;;
69750;SDS011;57335;52.288;6.056;2023-03-01T02:43:31;16.17;;;6.63;;
69750;SDS011;57335;52.288;6.056;2023-03-01T02:46:02;20.38;;;7.30;;
69750;SDS011;57335;52.288;6.056;2023-03-01T02:49:35;17.33;;;6.78;;
69750;SDS011;57335;52.288;6.056;2023-03-01T02:52:01;18.50;;;6.72;;
69750;SDS011;57335;52.288;6.056;2023-03-01T02:57:11;19.00;;;7.10;;
69750;SDS011;57335;52.288;6.056;2023-03-01T02:59:38;18.88;;;6.22;;
69750;SDS011;57335;52.288;6.056;2023-03-01T03:02:06;15.60;;;6.05;;
69750;SDS011;57335;52.288;6.056;2023-03-01T03:04:33;16.30;;;6.55;;
69750;SDS011;57335;52.288;6.056;2023-03-01T03:09:26;12.88;;;5.25;;
69750;SDS011;57335;52.288;6.056;2023-03-01T03:11:53;14.60;;;5.95;;
69750;SDS011;57335;52.288;6.056;2023-03-01T03:14:19;11.70;;;5.38;;
69750;SDS011;57335;52.288;6.056;2023-03-01T03:16:46;14.27;;;5.88;;
69750;SDS011;57335;52.288;6.056;2023-03-01T03:19:15;14.48;;;5.90;;
69750;SDS011;57335;52.288;6.056;2023-03-01T03:21:42;13.43;;;5.85;;
69750;SDS011;57335;52.288;6.056;2023-03-01T03:24:09;14.50;;;5.15;;
69750;SDS011;57335;52.288;6.056;2023-03-01T03:26:35;13.27;;;5.22;;
69750;SDS011;57335;52.288;6.056;2023-03-01T03:29:02;16.23;;;5.40;;
69750;SDS011;57335;52.288;6.056;2023-03-01T03:31:29;16.25;;;5.32;;
69750;SDS011;57335;52.288;6.056;2023-03-01T03:33:56;13.63;;;4.93;;
69750;SDS011;57335;52.288;6.056;2023-03-01T03:36:23;15.45;;;5.15;;
69750;SDS011;57335;52.288;6.056;2023-03-01T03:38:50;13.38;;;5.53;;
69750;SDS011;57335;52.288;6.056;2023-03-01T03:41:16;14.05;;;5.25;;
69750;SDS011;57335;52.288;6.056;2023-03-01T03:43:43;16.25;;;5.28;;
69750;SDS011;57335;52.288;6.056;2023-03-01T03:46:10;13.68;;;5.20;;
69750;SDS011;57335;52.288;6.056;2023-03-01T03:48:38;12.23;;;4.50;;
69750;SDS011;57335;52.288;6.056;2023-03-01T03:51:07;15.10;;;5.50;;
69750;SDS011;57335;52.288;6.056;2023-03-01T03:53:36;11.32;;;5.22;;
69750;SDS011;57335;52.288;6.056;2023-03-01T03:56:03;12.43;;;4.82;;
69750;SDS011;57335;52.288;6.056;2023-03-01T03:58:31;11.45;;;4.32;;
69750;SDS011;57335;52.288;6.056;2023-03-01T04:00:58;11.75;;;4.57;;
69750;SDS011;57335;52.288;6.056;2023-03-01T04:03:25;10.65;;;4.60;;
69750;SDS011;57335;52.288;6.056;2023-03-01T04:05:52;13.18;;;4.60;;
69750;SDS011;57335;52.288;6.056;2023-03-01T04:08:19;13.00;;;5.13;;
69750;SDS011;57335;52.288;6.056;2023-03-01T04:10:48;12.88;;;5.28;;
69750;SDS011;57335;52.288;6.056;2023-03-01T04:13:22;17.08;;;5.82;;
69750;SDS011;57335;52.288;6.056;2023-03-01T04:15:49;13.48;;;4.63;;
69750;SDS011;57335;52.288;6.056;2023-03-01T04:18:18;14.30;;;4.15;;
69750;SDS011;57335;52.288;6.056;2023-03-01T04:20:45;15.52;;;4.95;;
69750;SDS011;57335;52.288;6.056;2023-03-01T04:23:16;11.73;;;4.50;;
69750;SDS011;57335;52.288;6.056;2023-03-01T04:28:13;10.75;;;4.18;;
69750;SDS011;57335;52.288;6.056;2023-03-01T04:30:40;13.45;;;4.57;;
69750;SDS011;57335;52.288;6.056;2023-03-01T04:33:10;12.10;;;4.68;;
69750;SDS011;57335;52.288;6.056;2023-03-01T04:35:37;11.82;;;5.03;;
69750;SDS011;57335;52.288;6.056;2023-03-01T04:38:04;15.25;;;5.28;;
69750;SDS011;57335;52.288;6.056;2023-03-01T04:40:32;11.60;;;4.47;;
69750;SDS011;57335;52.288;6.056;2023-03-01T04:42:58;14.73;;;4.85;;
69750;SDS011;57335;52.288;6.056;2023-03-01T04:45:25;12.30;;;4.80;;
69750;SDS011;57335;52.288;6.056;2023-03-01T04:50:18;12.77;;;4.38;;
69750;SDS011;57335;52.288;6.056;2023-03-01T04:52:46;14.20;;;5.10;;
69750;SDS011;57335;52.288;6.056;2023-03-01T04:55:13;11.77;;;4.20;;
69750;SDS011;57335;52.288;6.056;2023-03-01T04:57:40;12.57;;;4.25;;
69750;SDS011;57335;52.288;6.056;2023-03-01T05:02:34;13.70;;;4.07;;
69750;SDS011;57335;52.288;6.056;2023-03-01T05:05:00;11.48;;;3.80;;
69750;SDS011;57335;52.288;6.056;2023-03-01T05:07:26;13.30;;;4.70;;
69750;SDS011;57335;52.288;6.056;2023-03-01T05:09:53;14.35;;;4.97;;
69750;SDS011;57335;52.288;6.056;2023-03-01T05:12:20;11.65;;;4.38;;
69750;SDS011;57335;52.288;6.056;2023-03-01T05:14:46;14.88;;;4.68;;
69750;SDS011;57335;52.288;6.056;2023-03-01T05:17:12;11.15;;;3.75;;
69750;SDS011;57335;52.288;6.056;2023-03-01T05:19:39;13.70;;;4.68;;
69750;SDS011;57335;52.288;6.056;2023-03-01T05:22:05;10.63;;;3.83;;
69750;SDS011;57335;52.288;6.056;2023-03-01T05:24:35;15.68;;;4.40;;
69750;SDS011;57335;52.288;6.056;2023-03-01T05:27:02;10.68;;;3.90;;
69750;SDS011;57335;52.288;6.056;2023-03-01T05:29:30;12.10;;;4.00;;
69750;SDS011;57335;52.288;6.056;2023-03-01T05:31:58;12.20;;;4.63;;
69750;SDS011;57335;52.288;6.056;2023-03-01T05:34:26;14.35;;;4.55;;
69750;SDS011;57335;52.288;6.056;2023-03-01T05:36:54;11.73;;;3.90;;
69750;SDS011;57335;52.288;6.056;2023-03-01T05:39:21;12.77;;;4.53;;
69750;SDS011;57335;52.288;6.056;2023-03-01T05:41:52;10.27;;;4.35;;
69750;SDS011;57335;52.288;6.056;2023-03-01T05:44:19;11.88;;;4.43;;
69750;SDS011;57335;52.288;6.056;2023-03-01T05:46:46;13.40;;;4.75;;
69750;SDS011;57335;52.288;6.056;2023-03-01T05:49:13;12.98;;;4.65;;
69750;SDS011;57335;52.288;6.056;2023-03-01T05:51:40;12.48;;;4.40;;
69750;SDS011;57335;52.288;6.056;2023-03-01T05:54:07;15.68;;;5.22;;
69750;SDS011;57335;52.288;6.056;2023-03-01T05:56:34;18.05;;;4.85;;
69750;SDS011;57335;52.288;6.056;2023-03-01T05:59:02;12.82;;;4.95;;
69750;SDS011;57335;52.288;6.056;2023-03-01T06:01:29;17.85;;;4.55;;
69750;SDS011;57335;52.288;6.056;2023-03-01T06:03:55;13.63;;;4.75;;
69750;SDS011;57335;52.288;6.056;2023-03-01T06:06:22;12.07;;;4.40;;
69750;SDS011;57335;52.288;6.056;2023-03-01T06:08:49;13.95;;;4.93;;
69750;SDS011;57335;52.288;6.056;2023-03-01T06:11:16;13.68;;;4.40;;
69750;SDS011;57335;52.288;6.056;2023-03-01T06:13:43;12.60;;;4.65;;
69750;SDS011;57335;52.288;6.056;2023-03-01T06:16:10;14.45;;;4.65;;
69750;SDS011;57335;52.288;6.056;2023-03-01T06:18:37;20.90;;;5.20;;
69750;SDS011;57335;52.288;6.056;2023-03-01T06:23:31;13.10;;;5.00;;
69750;SDS011;57335;52.288;6.056;2023-03-01T06:25:58;13.82;;;5.22;;
69750;SDS011;57335;52.288;6.056;2023-03-01T06:30:54;11.38;;;4.35;;
69750;SDS011;57335;52.288;6.056;2023-03-01T06:33:23;12.68;;;5.00;;
69750;SDS011;57335;52.288;6.056;2023-03-01T06:38:17;12.88;;;4.60;;
69750;SDS011;57335;52.288;6.056;2023-03-01T06:40:43;14.15;;;4.53;;
69750;SDS011;57335;52.288;6.056;2023-03-01T06:43:10;13.93;;;4.97;;
69750;SDS011;57335;52.288;6.056;2023-03-01T06:45:37;11.32;;;4.15;;
69750;SDS011;57335;52.288;6.056;2023-03-01T06:50:30;14.60;;;5.30;;
69750;SDS011;57335;52.288;6.056;2023-03-01T06:52:57;12.77;;;4.72;;
69750;SDS011;57335;52.288;6.056;2023-03-01T06:55:24;12.52;;;4.50;;
69750;SDS011;57335;52.288;6.056;2023-03-01T06:57:54;14.63;;;3.95;;
69750;SDS011;57335;52.288;6.056;2023-03-01T07:00:22;13.82;;;5.15;;
69750;SDS011;57335;52.288;6.056;2023-03-01T07:02:49;13.38;;;5.95;;
69750;SDS011;57335;52.288;6.056;2023-03-01T07:05:16;15.68;;;5.00;;
69750;SDS011;57335;52.288;6.056;2023-03-01T07:10:09;15.15;;;6.20;;
69750;SDS011;57335;52.288;6.056;2023-03-01T07:12:36;16.33;;;6.55;;
69750;SDS011;57335;52.288;6.056;2023-03-01T07:15:03;17.38;;;6.30;;
69750;SDS011;57335;52.288;6.056;2023-03-01T07:17:30;20.10;;;7.93;;
69750;SDS011;57335;52.288;6.056;2023-03-01T07:22:23;21.30;;;8.85;;
69750;SDS011;57335;52.288;6.056;2023-03-01T07:27:15;21.58;;;8.82;;
69750;SDS011;57335;52.288;6.056;2023-03-01T07:29:42;20.20;;;8.85;;
69750;SDS011;57335;52.288;6.056;2023-03-01T07:34:36;19.23;;;8.45;;
69750;SDS011;57335;52.288;6.056;2023-03-01T07:39:28;17.67;;;8.88;;
69750;SDS011;57335;52.288;6.056;2023-03-01T07:41:55;19.35;;;9.38;;
69750;SDS011;57335;52.288;6.056;2023-03-01T07:46:47;17.27;;;8.75;;
69750;SDS011;57335;52.288;6.056;2023-03-01T07:51:40;17.88;;;9.18;;
69750;SDS011;57335;52.288;6.056;2023-03-01T07:54:06;18.75;;;9.45;;
69750;SDS011;57335;52.288;6.056;2023-03-01T07:58:59;20.42;;;10.23;;
69750;SDS011;57335;52.288;6.056;2023-03-01T08:01:25;21.83;;;10.98;;
69750;SDS011;57335;52.288;6.056;2023-03-01T08:03:52;20.77;;;10.45;;
69750;SDS011;57335;52.288;6.056;2023-03-01T08:06:18;22.77;;;11.18;;
69750;SDS011;57335;52.288;6.056;2023-03-01T08:08:45;20.30;;;10.27;;
69750;SDS011;57335;52.288;6.056;2023-03-01T08:11:12;19.27;;;10.23;;
69750;SDS011;57335;52.288;6.056;2023-03-01T08:13:40;19.98;;;9.73;;
69750;SDS011;57335;52.288;6.056;2023-03-01T08:16:08;19.23;;;9.63;;
69750;SDS011;57335;52.288;6.056;2023-03-01T08:18:37;19.25;;;10.02;;
69750;SDS011;57335;52.288;6.056;2023-03-01T08:21:07;18.35;;;9.57;;
69750;SDS011;57335;52.288;6.056;2023-03-01T08:23:35;18.45;;;10.02;;
69750;SDS011;57335;52.288;6.056;2023-03-01T08:26:09;18.15;;;9.85;;
69750;SDS011;57335;52.288;6.056;2023-03-01T08:28:38;17.08;;;9.25;;
69750;SDS011;57335;52.288;6.056;2023-03-01T08:31:16;17.30;;;9.82;;
69750;SDS011;57335;52.288;6.056;2023-03-01T08:33:49;17.63;;;8.73;;
69750;SDS011;57335;52.288;6.056;2023-03-01T08:36:17;18.35;;;9.55;;
69750;SDS011;57335;52.288;6.056;2023-03-01T08:38:44;18.85;;;9.30;;
69750;SDS011;57335;52.288;6.056;2023-03-01T08:41:10;16.40;;;8.88;;
69750;SDS011;57335;52.288;6.056;2023-03-01T08:43:36;17.73;;;9.52;;
69750;SDS011;57335;52.288;6.056;2023-03-01T08:46:03;17.75;;;9.43;;
69750;SDS011;57335;52.288;6.056;2023-03-01T08:48:30;19.27;;;10.35;;
69750;SDS011;57335;52.288;6.056;2023-03-01T08:50:56;17.05;;;9.40;;
69750;SDS011;57335;52.288;6.056;2023-03-01T08:53:22;17.10;;;8.82;;
69750;SDS011;57335;52.288;6.056;2023-03-01T08:55:49;17.58;;;9.45;;
69750;SDS011;57335;52.288;6.056;2023-03-01T08:58:16;16.83;;;9.13;;
69750;SDS011;57335;52.288;6.056;2023-03-01T09:00:42;17.15;;;9.15;;
69750;SDS011;57335;52.288;6.056;2023-03-01T09:03:08;17.15;;;10.07;;
69750;SDS011;57335;52.288;6.056;2023-03-01T09:05:35;17.25;;;9.10;;
69750;SDS011;57335;52.288;6.056;2023-03-01T09:08:01;14.98;;;8.45;;
69750;SDS011;57335;52.288;6.056;2023-03-01T09:10:27;14.60;;;8.40;;
69750;SDS011;57335;52.288;6.056;2023-03-01T09:12:54;14.88;;;8.32;;
69750;SDS011;57335;52.288;6.056;2023-03-01T09:15:20;15.65;;;8.40;;
69750;SDS011;57335;52.288;6.056;2023-03-01T09:17:46;15.07;;;8.55;;
69750;SDS011;57335;52.288;6.056;2023-03-01T09:20:13;14.50;;;8.48;;
69750;SDS011;57335;52.288;6.056;2023-03-01T09:22:39;13.00;;;7.60;;
69750;SDS011;57335;52.288;6.056;2023-03-01T09:25:06;16.13;;;7.35;;
69750;SDS011;57335;52.288;6.056;2023-03-01T09:27:32;12.88;;;7.47;;
69750;SDS011;57335;52.288;6.056;2023-03-01T09:29:59;13.02;;;6.95;;
69750;SDS011;57335;52.288;6.056;2023-03-01T09:32:25;12.50;;;7.03;;
69750;SDS011;57335;52.288;6.056;2023-03-01T09:34:51;12.38;;;6.90;;
69750;SDS011;57335;52.288;6.056;2023-03-01T09:37:18;12.65;;;6.72;;
69750;SDS011;57335;52.288;6.056;2023-03-01T09:39:44;11.18;;;5.25;;
69750;SDS011;57335;52.288;6.056;2023-03-01T09:42:10;10.30;;;4.78;;
69750;SDS011;57335;52.288;6.056;2023-03-01T09:44:43;9.80;;;4.80;;
69750;SDS011;57335;52.288;6.056;2023-03-01T09:47:20;8.60;;;3.97;;
69750;SDS011;57335;52.288;6.056;2023-03-01T09:50:04;8.90;;;3.85;;
69750;SDS011;57335;52.288;6.056;2023-03-01T09:55:13;9.80;;;4.28;;
69750;SDS011;57335;52.288;6.056;2023-03-01T09:57:49;9.30;;;4.15;;
69750;SDS011;57335;52.288;6.056;2023-03-01T10:00:24;10.05;;;4.10;;
69750;SDS011;57335;52.288;6.056;2023-03-01T10:03:28;8.88;;;3.33;;
69750;SDS011;57335;52.288;6.056;2023-03-01T10:06:15;11.35;;;3.72;;
69750;SDS011;57335;52.288;6.056;2023-03-01T10:09:02;8.45;;;3.28;;
69750;SDS011;57335;52.288;6.056;2023-03-01T10:11:37;10.43;;;3.90;;
69750;SDS011;57335;52.288;6.056;2023-03-01T10:19:45;9.05;;;3.88;;
69750;SDS011;57335;52.288;6.056;2023-03-01T10:22:13;8.98;;;3.35;;
69750;SDS011;57335;52.288;6.056;2023-03-01T10:24:43;8.55;;;3.40;;
69750;SDS011;57335;52.288;6.056;2023-03-01T10:27:23;8.65;;;3.72;;
69750;SDS011;57335;52.288;6.056;2023-03-01T10:29:54;7.97;;;3.42;;
69750;SDS011;57335;52.288;6.056;2023-03-01T10:32:29;8.00;;;3.10;;
69750;SDS011;57335;52.288;6.056;2023-03-01T10:34:55;8.18;;;3.00;;
69750;SDS011;57335;52.288;6.056;2023-03-01T10:37:22;10.85;;;3.60;;
69750;SDS011;57335;52.288;6.056;2023-03-01T10:42:33;7.75;;;2.72;;
69750;SDS011;57335;52.288;6.056;2023-03-01T10:45:44;7.45;;;2.40;;
69750;SDS011;57335;52.288;6.056;2023-03-01T10:50:34;8.60;;;2.85;;
69750;SDS011;57335;52.288;6.056;2023-03-01T10:53:02;6.75;;;2.50;;
69750;SDS011;57335;52.288;6.056;2023-03-01T10:55:36;6.03;;;2.08;;
69750;SDS011;57335;52.288;6.056;2023-03-01T10:58:06;6.82;;;2.35;;
69750;SDS011;57335;52.288;6.056;2023-03-01T11:00:34;7.22;;;2.50;;
69750;SDS011;57335;52.288;6.056;2023-03-01T11:03:23;9.82;;;2.95;;
69750;SDS011;57335;52.288;6.056;2023-03-01T11:08:32;5.45;;;2.08;;
69750;SDS011;57335;52.288;6.056;2023-03-01T11:11:04;5.50;;;2.42;;
69750;SDS011;57335;52.288;6.056;2023-03-01T11:13:32;8.77;;;3.10;;
69750;SDS011;57335;52.288;6.056;2023-03-01T11:16:01;6.63;;;2.20;;
69750;SDS011;57335;52.288;6.056;2023-03-01T11:18:30;4.13;;;1.33;;
69750;SDS011;57335;52.288;6.056;2023-03-01T11:21:12;7.95;;;2.83;;
69750;SDS011;57335;52.288;6.056;2023-03-01T11:23:39;7.05;;;2.55;;
69750;SDS011;57335;52.288;6.056;2023-03-01T11:26:07;8.52;;;2.40;;
69750;SDS011;57335;52.288;6.056;2023-03-01T11:31:09;6.97;;;2.55;;
69750;SDS011;57335;52.288;6.056;2023-03-01T11:33:47;7.63;;;2.55;;
69750;SDS011;57335;52.288;6.056;2023-03-01T11:41:54;5.97;;;2.20;;
69750;SDS011;57335;52.288;6.056;2023-03-01T11:44:44;6.78;;;2.60;;
69750;SDS011;57335;52.288;6.056;2023-03-01T11:50:08;5.63;;;1.83;;
69750;SDS011;57335;52.288;6.056;2023-03-01T11:58:05;6.53;;;2.30;;
69750;SDS011;57335;52.288;6.056;2023-03-01T12:00:40;6.25;;;2.13;;
69750;SDS011;57335;52.288;6.056;2023-03-01T12:03:16;5.68;;;1.98;;
69750;SDS011;57335;52.288;6.056;2023-03-01T12:08:54;6.63;;;2.35;;
69750;SDS011;57335;52.288;6.056;2023-03-01T12:17:07;5.75;;;2.15;;
69750;SDS011;57335;52.288;6.056;2023-03-01T12:20:35;7.05;;;2.17;;
69750;SDS011;57335;52.288;6.056;2023-03-01T12:23:02;7.93;;;2.50;;
69750;SDS011;57335;52.288;6.056;2023-03-01T12:28:32;5.45;;;1.98;;
69750;SDS011;57335;52.288;6.056;2023-03-01T12:33:59;6.25;;;2.28;;
69750;SDS011;57335;52.288;6.056;2023-03-01T12:36:46;7.10;;;2.35;;
69750;SDS011;57335;52.288;6.056;2023-03-01T12:39:36;7.65;;;2.70;;
69750;SDS011;57335;52.288;6.056;2023-03-01T12:45:30;7.55;;;2.40;;
69750;SDS011;57335;52.288;6.056;2023-03-01T12:48:19;5.32;;;1.98;;
69750;SDS011;57335;52.288;6.056;2023-03-01T12:50:57;8.10;;;2.50;;
69750;SDS011;57335;52.288;6.056;2023-03-01T12:53:31;6.85;;;2.17;;
69750;SDS011;57335;52.288;6.056;2023-03-01T12:56:12;9.00;;;2.97;;
69750;SDS011;57335;52.288;6.056;2023-03-01T12:58:51;10.27;;;2.95;;
69750;SDS011;57335;52.288;6.056;2023-03-01T13:01:38;6.57;;;2.22;;
69750;SDS011;57335;52.288;6.056;2023-03-01T13:12:01;4.68;;;1.65;;
69750;SDS011;57335;52.288;6.056;2023-03-01T13:17:02;9.35;;;3.17;;
69750;SDS011;57335;52.288;6.056;2023-03-01T13:19:28;7.63;;;2.70;;
69750;SDS011;57335;52.288;6.056;2023-03-01T13:21:55;6.68;;;2.47;;
69750;SDS011;57335;52.288;6.056;2023-03-01T13:24:23;7.43;;;2.78;;
69750;SDS011;57335;52.288;6.056;2023-03-01T13:29:49;6.95;;;2.60;;
69750;SDS011;57335;52.288;6.056;2023-03-01T13:32:27;8.13;;;2.72;;
69750;SDS011;57335;52.288;6.056;2023-03-01T13:40:05;5.70;;;1.67;;
69750;SDS011;57335;52.288;6.056;2023-03-01T13:42:55;7.07;;;2.55;;
69750;SDS011;57335;52.288;6.056;2023-03-01T13:45:41;10.27;;;3.38;;
69750;SDS011;57335;52.288;6.056;2023-03-01T13:48:11;5.22;;;1.85;;
69750;SDS011;57335;52.288;6.056;2023-03-01T13:50:48;7.30;;;2.42;;
69750;SDS011;57335;52.288;6.056;2023-03-01T13:53:19;7.65;;;2.95;;
69750;SDS011;57335;52.288;6.056;2023-03-01T13:55:58;8.05;;;2.30;;
69750;SDS011;57335;52.288;6.056;2023-03-01T13:58:29;6.57;;;2.08;;
69750;SDS011;57335;52.288;6.056;2023-03-01T14:03:26;7.03;;;2.30;;
69750;SDS011;57335;52.288;6.056;2023-03-01T14:08:40;7.68;;;2.45;;
69750;SDS011;57335;52.288;6.056;2023-03-01T14:11:22;6.13;;;2.13;;
69750;SDS011;57335;52.288;6.056;2023-03-01T14:19:26;5.43;;;1.90;;
69750;SDS011;57335;52.288;6.056;2023-03-01T14:25:00;5.00;;;1.92;;
69750;SDS011;57335;52.288;6.056;2023-03-01T14:27:33;9.80;;;2.97;;
69750;SDS011;57335;52.288;6.056;2023-03-01T14:30:03;6.55;;;2.90;;
69750;SDS011;57335;52.288;6.056;2023-03-01T14:32:52;7.43;;;2.40;;
69750;SDS011;57335;52.288;6.056;2023-03-01T14:35:27;6.13;;;2.20;;
69750;SDS011;57335;52.288;6.056;2023-03-01T14:37:55;5.90;;;2.17;;
69750;SDS011;57335;52.288;6.056;2023-03-01T14:40:23;5.68;;;2.15;;
69750;SDS011;57335;52.288;6.056;2023-03-01T14:42:56;6.63;;;2.63;;
69750;SDS011;57335;52.288;6.056;2023-03-01T14:45:25;6.13;;;2.13;;
69750;SDS011;57335;52.288;6.056;2023-03-01T14:47:55;7.18;;;2.90;;
69750;SDS011;57335;52.288;6.056;2023-03-01T14:50:30;6.63;;;2.53;;
69750;SDS011;57335;52.288;6.056;2023-03-01T14:53:01;5.95;;;2.75;;
69750;SDS011;57335;52.288;6.056;2023-03-01T14:55:41;6.53;;;2.50;;
69750;SDS011;57335;52.288;6.056;2023-03-01T14:58:14;7.90;;;3.00;;
69750;SDS011;57335;52.288;6.056;2023-03-01T15:00:55;7.25;;;2.65;;
69750;SDS011;57335;52.288;6.056;2023-03-01T15:05:56;8.35;;;2.58;;
69750;SDS011;57335;52.288;6.056;2023-03-01T15:08:23;7.55;;;2.90;;
69750;SDS011;57335;52.288;6.056;2023-03-01T15:10:58;9.30;;;2.92;;
69750;SDS011;57335;52.288;6.056;2023-03-01T15:13:34;9.00;;;3.05;;
69750;SDS011;57335;52.288;6.056;2023-03-01T15:16:11;7.85;;;2.58;;
69750;SDS011;57335;52.288;6.056;2023-03-01T15:18:37;8.20;;;2.90;;
69750;SDS011;57335;52.288;6.056;2023-03-01T15:21:18;6.50;;;2.45;;
69750;SDS011;57335;52.288;6.056;2023-03-01T15:23:48;9.68;;;2.30;;
69750;SDS011;57335;52.288;6.056;2023-03-01T15:26:26;6.50;;;2.22;;
69750;SDS011;57335;52.288;6.056;2023-03-01T15:28:56;8.05;;;3.20;;
69750;SDS011;57335;52.288;6.056;2023-03-01T15:31:26;7.28;;;2.90;;
69750;SDS011;57335;52.288;6.056;2023-03-01T15:36:52;5.55;;;1.98;;
69750;SDS011;57335;52.288;6.056;2023-03-01T15:41:58;7.57;;;2.67;;
69750;SDS011;57335;52.288;6.056;2023-03-01T15:44:27;7.38;;;2.80;;
69750;SDS011;57335;52.288;6.056;2023-03-01T15:47:23;8.55;;;3.38;;
69750;SDS011;57335;52.288;6.056;2023-03-01T15:49:51;8.77;;;3.20;;
69750;SDS011;57335;52.288;6.056;2023-03-01T15:52:25;8.07;;;2.45;;
69750;SDS011;57335;52.288;6.056;2023-03-01T15:55:04;8.13;;;2.80;;
69750;SDS011;57335;52.288;6.056;2023-03-01T15:57:32;7.35;;;2.42;;
69750;SDS011;57335;52.288;6.056;2023-03-01T15:59:59;6.30;;;2.28;;
69750;SDS011;57335;52.288;6.056;2023-03-01T16:02:25;7.30;;;2.83;;
69750;SDS011;57335;52.288;6.056;2023-03-01T16:04:52;6.57;;;2.10;;
69750;SDS011;57335;52.288;6.056;2023-03-01T16:07:18;6.07;;;1.90;;
69750;SDS011;57335;52.288;6.056;2023-03-01T16:12:14;7.85;;;2.80;;
69750;SDS011;57335;52.288;6.056;2023-03-01T16:14:42;7.10;;;2.40;;
69750;SDS011;57335;52.288;6.056;2023-03-01T16:17:08;8.52;;;2.80;;
69750;SDS011;57335;52.288;6.056;2023-03-01T16:19:35;7.85;;;3.10;;
69750;SDS011;57335;52.288;6.056;2023-03-01T16:22:03;5.00;;;1.95;;
69750;SDS011;57335;52.288;6.056;2023-03-01T16:24:29;8.70;;;3.03;;
69750;SDS011;57335;52.288;6.056;2023-03-01T16:26:56;9.15;;;3.25;;
69750;SDS011;57335;52.288;6.056;2023-03-01T16:31:48;11.05;;;3.10;;
69750;SDS011;57335;52.288;6.056;2023-03-01T16:34:15;7.75;;;2.70;;
69750;SDS011;57335;52.288;6.056;2023-03-01T16:39:08;8.80;;;2.95;;
69750;SDS011;57335;52.288;6.056;2023-03-01T16:44:01;8.63;;;2.90;;
69750;SDS011;57335;52.288;6.056;2023-03-01T16:46:28;7.35;;;2.67;;
69750;SDS011;57335;52.288;6.056;2023-03-01T16:48:55;8.90;;;3.60;;
69750;SDS011;57335;52.288;6.056;2023-03-01T16:51:22;9.85;;;3.25;;
69750;SDS011;57335;52.288;6.056;2023-03-01T16:53:49;10.18;;;3.42;;
69750;SDS011;57335;52.288;6.056;2023-03-01T16:56:16;8.10;;;3.10;;
69750;SDS011;57335;52.288;6.056;2023-03-01T16:58:44;9.52;;;3.05;;
69750;SDS011;57335;52.288;6.056;2023-03-01T17:01:11;9.57;;;3.55;;
69750;SDS011;57335;52.288;6.056;2023-03-01T17:03:39;8.50;;;3.08;;
69750;SDS011;57335;52.288;6.056;2023-03-01T17:06:08;7.95;;;3.10;;
69750;SDS011;57335;52.288;6.056;2023-03-01T17:08:39;9.60;;;3.40;;
69750;SDS011;57335;52.288;6.056;2023-03-01T17:13:33;10.70;;;3.45;;
69750;SDS011;57335;52.288;6.056;2023-03-01T17:16:02;9.70;;;3.53;;
69750;SDS011;57335;52.288;6.056;2023-03-01T17:18:29;10.40;;;3.75;;
69750;SDS011;57335;52.288;6.056;2023-03-01T17:20:56;8.43;;;3.17;;
69750;SDS011;57335;52.288;6.056;2023-03-01T17:25:49;10.63;;;3.35;;
69750;SDS011;57335;52.288;6.056;2023-03-01T17:30:42;10.20;;;3.53;;
69750;SDS011;57335;52.288;6.056;2023-03-01T17:33:10;9.18;;;3.38;;